createdAt,value
2023-04-21T00:01:37.064Z,19.48
2023-04-21T00:04:04.297Z,19.73
2023-04-21T00:06:31.652Z,18.48
2023-04-21T00:08:58.785Z,19.25
2023-04-21T00:11:25.702Z,19.23
2023-04-21T00:13:56.608Z,17.23
2023-04-21T00:16:23.560Z,18.13
2023-04-21T00:18:50.809Z,19.98
2023-04-21T00:21:18.001Z,20.15
2023-04-21T00:23:45.110Z,19.65
2023-04-21T00:26:12.251Z,19.38
2023-04-21T00:28:39.606Z,20.00
2023-04-21T00:31:06.646Z,18.85
2023-04-21T00:33:33.743Z,21.25
2023-04-21T00:36:01.052Z,20.48
2023-04-21T00:38:27.950Z,20.80
2023-04-21T00:40:55.074Z,20.55
2023-04-21T00:43:22.060Z,19.33
2023-04-21T00:45:49.043Z,19.23
2023-04-21T00:48:16.001Z,18.80
2023-04-21T00:50:44.141Z,17.77
2023-04-21T00:53:12.834Z,16.88
2023-04-21T00:55:40.466Z,16.73
2023-04-21T00:58:07.662Z,16.98
2023-04-21T01:00:34.728Z,16.67
2023-04-21T01:03:02.193Z,15.32
2023-04-21T01:05:29.195Z,16.48
2023-04-21T01:07:56.292Z,16.92
2023-04-21T01:10:23.344Z,16.42
2023-04-21T01:12:51.981Z,16.77
2023-04-21T01:15:19.073Z,16.70
2023-04-21T01:17:46.230Z,16.92
2023-04-21T01:20:14.805Z,17.02
2023-04-21T01:22:43.223Z,17.85
2023-04-21T01:25:10.703Z,17.65
2023-04-21T01:27:37.968Z,16.55
2023-04-21T01:30:08.874Z,17.92
2023-04-21T01:32:36.526Z,16.90
2023-04-21T01:35:03.885Z,17.52
2023-04-21T01:37:32.572Z,18.95
2023-04-21T01:40:01.817Z,18.73
2023-04-21T01:42:30.695Z,17.17
2023-04-21T01:44:58.206Z,19.35
2023-04-21T01:47:26.205Z,18.95
2023-04-21T01:49:54.070Z,18.75
2023-04-21T01:52:21.870Z,18.13
2023-04-21T01:54:49.109Z,18.58
2023-04-21T01:57:17.630Z,18.35
2023-04-21T01:59:45.268Z,17.23
2023-04-21T02:02:12.430Z,18.02
2023-04-21T02:04:39.967Z,18.45
2023-04-21T02:07:07.256Z,18.20
2023-04-21T02:09:34.455Z,17.63
2023-04-21T02:12:02.700Z,17.38
2023-04-21T02:14:29.918Z,16.95
2023-04-21T02:16:57.101Z,17.17
2023-04-21T02:19:24.938Z,18.05
2023-04-21T02:21:51.974Z,16.58
2023-04-21T02:24:19.337Z,17.55
2023-04-21T02:26:46.403Z,16.58
2023-04-21T02:29:13.532Z,17.20
2023-04-21T02:31:54.205Z,17.55
2023-04-21T02:34:24.826Z,17.48
2023-04-21T02:36:51.814Z,17.17
2023-04-21T02:39:19.132Z,16.42
2023-04-21T02:41:46.407Z,16.27
2023-04-21T02:44:13.434Z,17.27
2023-04-21T02:46:41.925Z,16.48
2023-04-21T02:49:09.897Z,17.42
2023-04-21T02:51:37.370Z,16.90
2023-04-21T02:54:04.507Z,17.42
2023-04-21T02:56:32.244Z,16.40
2023-04-21T02:58:59.264Z,16.85
2023-04-21T03:01:26.456Z,17.02
2023-04-21T03:03:53.451Z,16.92
2023-04-21T03:06:20.664Z,17.67
2023-04-21T03:08:47.667Z,16.20
2023-04-21T03:11:14.974Z,16.15
2023-04-21T03:13:42.073Z,16.35
2023-04-21T03:16:09.276Z,16.70
2023-04-21T03:18:36.618Z,15.93
2023-04-21T03:21:03.685Z,15.50
2023-04-21T03:23:30.699Z,17.10
2023-04-21T03:25:57.611Z,16.20
2023-04-21T03:28:24.491Z,17.75
2023-04-21T03:30:51.440Z,17.10
2023-04-21T03:33:18.345Z,16.65
2023-04-21T03:35:45.414Z,15.50
2023-04-21T03:38:12.325Z,16.05
2023-04-21T03:40:39.288Z,16.05
2023-04-21T03:43:06.206Z,15.50
2023-04-21T03:45:35.824Z,17.77
2023-04-21T03:48:03.944Z,16.98
2023-04-21T03:50:31.113Z,17.05
2023-04-21T03:52:58.060Z,16.13
2023-04-21T03:55:24.991Z,15.85
2023-04-21T03:57:52.100Z,17.10
2023-04-21T04:00:19.139Z,15.90
2023-04-21T04:02:46.355Z,16.80
2023-04-21T04:05:13.582Z,16.48
2023-04-21T04:07:41.092Z,17.60
2023-04-21T04:10:08.201Z,16.88
2023-04-21T04:12:35.087Z,17.77
2023-04-21T04:15:02.989Z,18.63
2023-04-21T04:17:29.963Z,17.15
2023-04-21T04:19:56.995Z,17.60
2023-04-21T04:22:24.042Z,17.38
2023-04-21T04:24:51.527Z,18.20
2023-04-21T04:27:20.763Z,17.17
2023-04-21T04:29:49.601Z,15.82
2023-04-21T04:32:16.554Z,16.40
2023-04-21T04:34:43.625Z,18.67
2023-04-21T04:37:11.511Z,20.08
2023-04-21T04:39:38.558Z,20.67
2023-04-21T04:42:12.147Z,20.67
2023-04-21T04:44:39.137Z,18.52
2023-04-21T04:47:06.292Z,20.10
2023-04-21T04:49:33.525Z,19.30
2023-04-21T04:52:02.205Z,19.65
2023-04-21T04:54:29.466Z,17.15
2023-04-21T04:56:58.081Z,16.58
2023-04-21T04:59:25.024Z,15.50
2023-04-21T05:01:52.851Z,17.08
2023-04-21T05:04:20.903Z,16.63
2023-04-21T05:06:48.301Z,17.48
2023-04-21T05:09:15.344Z,16.20
2023-04-21T05:11:42.343Z,16.13
2023-04-21T05:14:09.592Z,16.42
2023-04-21T05:16:36.578Z,14.18
2023-04-21T05:19:04.191Z,14.40
2023-04-21T05:21:31.530Z,14.38
2023-04-21T05:23:59.397Z,14.10
2023-04-21T05:26:27.965Z,13.57
2023-04-21T05:28:59.136Z,12.10
2023-04-21T05:31:26.236Z,13.05
2023-04-21T05:33:53.782Z,12.35
2023-04-21T05:36:20.668Z,12.30
2023-04-21T05:38:47.708Z,11.77
2023-04-21T05:41:14.856Z,10.98
2023-04-21T05:43:41.785Z,12.50
2023-04-21T05:46:11.869Z,11.05
2023-04-21T05:48:38.881Z,10.52
2023-04-21T05:51:23.980Z,11.95
2023-04-21T05:53:51.050Z,13.10
2023-04-21T05:56:18.053Z,11.82
2023-04-21T05:58:45.095Z,11.35
2023-04-21T06:01:13.224Z,11.23
2023-04-21T06:03:40.362Z,11.35
2023-04-21T06:06:07.663Z,10.10
2023-04-21T06:08:35.001Z,10.52
2023-04-21T06:11:01.930Z,10.02
2023-04-21T06:13:29.112Z,9.80
2023-04-21T06:15:56.150Z,10.40
2023-04-21T06:18:24.362Z,9.00
2023-04-21T06:20:52.654Z,9.38
2023-04-21T06:23:19.753Z,8.80
2023-04-21T06:25:47.003Z,9.48
2023-04-21T06:28:14.051Z,9.45
2023-04-21T06:30:41.083Z,10.57
2023-04-21T06:33:08.153Z,10.25
2023-04-21T06:35:35.057Z,10.20
2023-04-21T06:38:01.934Z,11.90
2023-04-21T06:40:28.951Z,12.60
2023-04-21T06:42:55.986Z,10.77
2023-04-21T06:45:23.084Z,11.07
2023-04-21T06:47:50.115Z,10.68
2023-04-21T06:50:17.020Z,9.05
2023-04-21T06:52:43.903Z,8.43
2023-04-21T06:55:11.419Z,7.78
2023-04-21T06:57:38.345Z,6.95
2023-04-21T07:00:06.089Z,7.88
2023-04-21T07:02:33.427Z,6.45
2023-04-21T07:05:00.534Z,6.53
2023-04-21T07:07:27.821Z,6.78
2023-04-21T07:09:54.777Z,6.38
2023-04-21T07:12:22.037Z,5.85
2023-04-21T07:14:48.960Z,6.75
2023-04-21T07:17:16.135Z,6.32
2023-04-21T07:19:43.212Z,5.85
2023-04-21T07:22:10.135Z,5.38
2023-04-21T07:24:37.690Z,5.65
2023-04-21T07:27:04.731Z,6.03
2023-04-21T07:29:31.671Z,6.22
2023-04-21T07:31:58.836Z,6.03
2023-04-21T07:34:26.197Z,6.10
2023-04-21T07:36:53.465Z,5.63
2023-04-21T07:39:21.032Z,5.88
2023-04-21T07:41:48.624Z,6.72
2023-04-21T07:44:15.655Z,5.88
2023-04-21T07:46:42.959Z,6.07
2023-04-21T07:49:10.048Z,5.57
2023-04-21T07:51:36.974Z,5.47
2023-04-21T07:54:04.009Z,6.15
2023-04-21T07:56:31.776Z,6.03
2023-04-21T07:58:58.700Z,5.25
2023-04-21T08:01:26.010Z,5.13
2023-04-21T08:03:53.027Z,4.63
2023-04-21T08:06:20.266Z,4.75
2023-04-21T08:08:47.340Z,4.47
2023-04-21T08:11:14.395Z,4.63
2023-04-21T08:13:41.434Z,5.03
2023-04-21T08:16:08.827Z,5.43
2023-04-21T08:18:36.309Z,4.82
2023-04-21T08:21:03.283Z,5.43
2023-04-21T08:23:32.447Z,5.10
2023-04-21T08:25:59.657Z,5.40
2023-04-21T08:28:26.835Z,4.82
2023-04-21T08:30:53.825Z,5.13
2023-04-21T08:33:21.004Z,3.95
2023-04-21T08:36:02.495Z,5.10
2023-04-21T08:38:31.198Z,5.00
2023-04-21T08:41:00.145Z,4.88
2023-04-21T08:43:29.104Z,5.43
2023-04-21T08:45:57.010Z,5.72
2023-04-21T08:48:25.339Z,5.05
2023-04-21T08:50:52.933Z,4.97
2023-04-21T08:53:21.052Z,4.78
2023-04-21T08:56:10.018Z,4.70
2023-04-21T08:58:38.661Z,4.70
2023-04-21T09:01:06.083Z,5.07
2023-04-21T09:03:33.210Z,4.75
2023-04-21T09:06:08.867Z,4.53
2023-04-21T09:08:43.654Z,4.63
2023-04-21T09:11:14.956Z,4.55
2023-04-21T09:13:44.331Z,4.72
2023-04-21T09:16:22.373Z,4.43
2023-04-21T09:18:50.522Z,5.20
2023-04-21T09:21:19.847Z,5.45
2023-04-21T09:23:49.234Z,5.30
2023-04-21T09:26:18.425Z,5.47
2023-04-21T09:28:48.008Z,5.72
2023-04-21T09:31:17.252Z,5.55
2023-04-21T09:33:57.601Z,5.22
2023-04-21T09:36:28.954Z,5.15
2023-04-21T09:41:32.950Z,5.30
2023-04-21T09:44:04.956Z,5.82
2023-04-21T09:46:37.065Z,4.88
2023-04-21T09:49:04.929Z,4.88
2023-04-21T09:56:53.304Z,4.53
2023-04-21T09:59:27.966Z,3.63
2023-04-21T10:01:56.745Z,3.70
2023-04-21T10:04:26.450Z,5.10
2023-04-21T10:06:53.911Z,4.32
2023-04-21T10:09:24.308Z,4.03
2023-04-21T10:11:53.534Z,4.55
2023-04-21T10:14:21.010Z,4.35
2023-04-21T10:17:06.878Z,4.32
2023-04-21T10:19:44.927Z,4.55
2023-04-21T10:22:12.461Z,4.55
2023-04-21T10:24:40.460Z,4.55
2023-04-21T10:27:30.708Z,5.95
2023-04-21T10:29:59.485Z,5.03
2023-04-21T10:32:41.975Z,4.55
2023-04-21T10:35:29.950Z,5.03
2023-04-21T10:37:59.127Z,5.28
2023-04-21T10:43:46.620Z,4.40
2023-04-21T10:46:36.037Z,4.32
2023-04-21T10:49:09.956Z,5.18
2023-04-21T10:51:58.802Z,6.22
2023-04-21T10:54:27.149Z,4.82
2023-04-21T10:56:55.834Z,5.72
2023-04-21T10:59:23.148Z,4.95
2023-04-21T11:01:50.136Z,4.97
2023-04-21T11:04:19.088Z,4.75
2023-04-21T11:07:12.491Z,4.95
2023-04-21T11:09:41.195Z,5.43
2023-04-21T11:12:13.366Z,5.13
2023-04-21T11:14:42.391Z,5.05
2023-04-21T11:17:15.502Z,4.88
2023-04-21T11:19:45.654Z,5.25
2023-04-21T11:22:12.593Z,4.57
2023-04-21T11:24:46.071Z,4.70
2023-04-21T11:27:14.674Z,4.55
2023-04-21T11:29:42.846Z,4.65
2023-04-21T11:32:11.769Z,3.65
2023-04-21T11:34:39.486Z,4.03
2023-04-21T11:37:29.760Z,4.07
2023-04-21T11:40:01.484Z,3.63
2023-04-21T11:42:29.322Z,3.33
2023-04-21T11:44:57.385Z,4.20
2023-04-21T11:47:27.090Z,3.22
2023-04-21T11:49:56.857Z,3.80
2023-04-21T11:52:29.749Z,3.65
2023-04-21T11:55:01.716Z,3.65
2023-04-21T11:57:30.691Z,2.70
2023-04-21T12:00:02.483Z,3.97
2023-04-21T12:02:32.132Z,3.55
2023-04-21T12:05:00.598Z,2.97
2023-04-21T12:07:29.302Z,3.20
2023-04-21T12:09:56.194Z,3.25
2023-04-21T12:12:24.773Z,2.97
2023-04-21T12:14:52.620Z,3.05
2023-04-21T12:17:20.772Z,3.13
2023-04-21T12:19:48.262Z,2.47
2023-04-21T12:22:19.031Z,3.05
2023-04-21T12:24:47.538Z,2.88
2023-04-21T12:27:14.733Z,2.42
2023-04-21T12:29:42.249Z,2.75
2023-04-21T12:32:10.152Z,3.03
2023-04-21T12:34:37.736Z,3.22
2023-04-21T12:37:05.185Z,3.80
2023-04-21T12:39:32.610Z,3.30
2023-04-21T12:42:00.209Z,3.28
2023-04-21T12:44:27.505Z,4.10
2023-04-21T12:46:54.482Z,3.30
2023-04-21T12:49:21.463Z,3.28
2023-04-21T12:51:49.570Z,2.78
2023-04-21T12:54:16.780Z,3.90
2023-04-21T12:56:44.468Z,3.58
2023-04-21T12:59:11.972Z,3.20
2023-04-21T13:01:40.392Z,3.60
2023-04-21T13:04:08.342Z,3.05
2023-04-21T13:06:35.840Z,2.97
2023-04-21T13:09:03.643Z,3.67
2023-04-21T13:11:30.679Z,2.67
2023-04-21T13:13:58.550Z,3.88
2023-04-21T13:16:26.764Z,3.42
2023-04-21T13:18:55.668Z,3.55
2023-04-21T13:21:22.703Z,3.00
2023-04-21T13:23:49.702Z,2.90
2023-04-21T13:26:18.865Z,3.55
2023-04-21T13:28:46.175Z,3.28
2023-04-21T13:31:14.767Z,2.40
2023-04-21T13:33:42.505Z,3.03
2023-04-21T13:36:12.555Z,2.88
2023-04-21T13:38:41.102Z,2.63
2023-04-21T13:41:08.625Z,2.85
2023-04-21T13:43:36.488Z,3.38
2023-04-21T13:46:03.705Z,3.25
2023-04-21T13:48:30.798Z,2.30
2023-04-21T13:50:57.831Z,2.92
2023-04-21T13:53:24.821Z,2.95
2023-04-21T13:55:51.842Z,2.30
2023-04-21T13:58:18.856Z,3.08
2023-04-21T14:00:45.893Z,2.65
2023-04-21T14:03:14.322Z,3.15
2023-04-21T14:05:41.532Z,3.08
2023-04-21T14:08:08.806Z,2.40
2023-04-21T14:10:35.828Z,3.47
2023-04-21T14:13:02.782Z,3.05
2023-04-21T14:15:29.892Z,2.70
2023-04-21T14:17:57.433Z,3.15
2023-04-21T14:20:24.668Z,2.80
2023-04-21T14:22:51.756Z,2.58
2023-04-21T14:25:18.760Z,2.17
2023-04-21T14:27:46.047Z,2.80
2023-04-21T14:30:14.582Z,3.10
2023-04-21T14:32:47.382Z,2.50
2023-04-21T14:35:15.219Z,2.40
2023-04-21T14:37:42.164Z,2.67
2023-04-21T14:40:09.885Z,2.63
2023-04-21T14:42:37.159Z,2.55
2023-04-21T14:45:04.535Z,2.88
2023-04-21T14:47:31.766Z,2.33
2023-04-21T14:49:58.806Z,2.80
2023-04-21T14:52:27.133Z,2.70
2023-04-21T14:54:54.246Z,4.13
2023-04-21T14:57:22.203Z,2.80
2023-04-21T14:59:53.588Z,2.97
2023-04-21T15:04:49.302Z,2.28
2023-04-21T15:07:19.947Z,3.47
2023-04-21T15:09:50.211Z,2.38
2023-04-21T15:12:17.257Z,3.45
2023-04-21T15:14:44.633Z,2.17
2023-04-21T15:17:11.777Z,2.78
2023-04-21T15:19:38.907Z,2.38
2023-04-21T15:22:06.185Z,2.70
2023-04-21T15:24:35.256Z,2.63
2023-04-21T15:27:02.683Z,2.70
2023-04-21T15:29:29.658Z,2.83
2023-04-21T15:31:56.659Z,2.60
2023-04-21T15:34:23.572Z,2.13
2023-04-21T15:36:50.864Z,2.25
2023-04-21T15:39:17.810Z,2.03
2023-04-21T15:41:44.830Z,3.03
2023-04-21T15:44:11.948Z,3.20
2023-04-21T15:46:39.010Z,3.70
2023-04-21T15:49:06.132Z,2.42
2023-04-21T15:51:35.087Z,3.03
2023-04-21T15:54:02.241Z,2.03
2023-04-21T15:56:29.173Z,2.55
2023-04-21T15:58:56.283Z,2.33
2023-04-21T16:01:23.484Z,2.60
2023-04-21T16:03:51.009Z,2.63
2023-04-21T16:06:18.218Z,2.92
2023-04-21T16:08:45.214Z,2.50
2023-04-21T16:11:12.771Z,2.88
2023-04-21T16:13:39.980Z,2.55
2023-04-21T16:16:07.392Z,3.00
2023-04-21T16:18:34.734Z,2.75
2023-04-21T16:21:01.953Z,3.30
2023-04-21T16:23:29.015Z,3.00
2023-04-21T16:25:56.221Z,2.88
2023-04-21T16:28:23.387Z,13.25
2023-04-21T16:30:50.782Z,8.45
2023-04-21T16:33:17.965Z,2.90
2023-04-21T16:35:45.168Z,2.60
2023-04-21T16:38:12.315Z,3.45
2023-04-21T16:40:39.403Z,5.43
2023-04-21T16:43:06.436Z,4.82
2023-04-21T16:45:33.462Z,47.80
2023-04-21T16:48:00.527Z,3.67
2023-04-21T16:50:30.868Z,17.55
2023-04-21T16:52:57.810Z,8.48
2023-04-21T16:55:24.816Z,9.23
2023-04-21T16:57:52.017Z,3.15
2023-04-21T17:00:19.334Z,2.90
2023-04-21T17:02:46.775Z,7.25
2023-04-21T17:05:15.977Z,14.02
2023-04-21T17:07:43.476Z,3.53
2023-04-21T17:10:11.006Z,5.93
2023-04-21T17:12:38.041Z,4.82
2023-04-21T17:15:05.877Z,3.80
2023-04-21T17:17:42.584Z,3.60
2023-04-21T17:20:11.981Z,25.95
2023-04-21T17:22:40.017Z,6.80
2023-04-21T17:25:08.362Z,4.45
2023-04-21T17:27:36.463Z,5.05
2023-04-21T17:30:07.983Z,4.00
2023-04-21T17:35:03.192Z,5.10
2023-04-21T17:37:30.530Z,5.20
2023-04-21T17:39:59.758Z,4.72
2023-04-21T17:42:28.488Z,3.73
2023-04-21T17:44:55.485Z,5.00
2023-04-21T17:47:22.689Z,4.75
2023-04-21T17:49:49.765Z,4.28
2023-04-21T17:52:17.235Z,5.28
2023-04-21T17:54:44.363Z,4.60
2023-04-21T17:57:12.149Z,4.60
2023-04-21T17:59:39.990Z,5.68
2023-04-21T18:02:07.724Z,6.47
2023-04-21T18:04:35.288Z,5.35
2023-04-21T18:07:03.376Z,15.20
2023-04-21T18:09:30.497Z,6.68
2023-04-21T18:11:58.534Z,5.55
2023-04-21T18:14:26.076Z,5.53
2023-04-21T18:16:53.432Z,5.07
2023-04-21T18:19:20.449Z,6.00
2023-04-21T18:21:47.453Z,6.80
2023-04-21T18:24:15.006Z,8.73
2023-04-21T18:26:42.080Z,9.40
2023-04-21T18:29:09.108Z,10.65
2023-04-21T18:31:36.490Z,12.23
2023-04-21T18:34:03.859Z,11.93
2023-04-21T18:36:33.502Z,11.57
2023-04-21T18:39:01.038Z,12.32
2023-04-21T18:41:28.146Z,12.90
2023-04-21T18:43:55.332Z,11.48
2023-04-21T18:46:22.460Z,12.30
2023-04-21T18:48:49.435Z,11.73
2023-04-21T18:51:16.985Z,11.68
2023-04-21T18:53:46.527Z,11.75
2023-04-21T18:56:13.487Z,12.65
2023-04-21T18:58:40.613Z,12.05
2023-04-21T19:01:08.288Z,13.32
2023-04-21T19:03:35.698Z,15.30
2023-04-21T19:06:02.864Z,15.43
2023-04-21T19:08:41.403Z,17.05
2023-04-21T19:11:10.655Z,19.70
2023-04-21T19:13:37.746Z,21.88
2023-04-21T19:16:05.474Z,19.05
2023-04-21T19:18:32.576Z,19.67
2023-04-21T19:20:59.670Z,19.02
2023-04-21T19:23:26.698Z,20.20
2023-04-21T19:25:56.373Z,20.02
2023-04-21T19:28:24.083Z,19.77
2023-04-21T19:30:51.200Z,19.35
2023-04-21T19:33:18.424Z,21.77
2023-04-21T19:35:46.064Z,21.90
2023-04-21T19:38:13.224Z,20.63
2023-04-21T19:40:42.518Z,21.55
2023-04-21T19:43:09.584Z,20.80
2023-04-21T19:45:37.823Z,21.60
2023-04-21T19:48:05.256Z,19.83
2023-04-21T19:50:32.608Z,19.55
2023-04-21T19:52:59.588Z,20.08
2023-04-21T19:55:28.137Z,20.15
2023-04-21T19:57:55.184Z,19.90
2023-04-21T20:00:22.270Z,20.00
2023-04-21T20:02:49.308Z,20.73
2023-04-21T20:05:16.629Z,21.20
2023-04-21T20:07:43.920Z,20.65
2023-04-21T20:10:11.467Z,17.45
2023-04-21T20:12:38.507Z,17.95
2023-04-21T20:15:06.065Z,17.25
2023-04-21T20:17:33.046Z,17.85
2023-04-21T20:20:00.144Z,16.08
2023-04-21T20:22:27.133Z,15.80
2023-04-21T20:24:54.288Z,15.30
2023-04-21T20:27:21.288Z,13.15
2023-04-21T20:29:48.469Z,13.35
2023-04-21T20:32:15.573Z,12.75
2023-04-21T20:34:42.965Z,12.65
2023-04-21T20:37:11.052Z,12.82
2023-04-21T20:39:38.846Z,13.23
2023-04-21T20:42:12.433Z,12.27
2023-04-21T20:44:41.575Z,11.60
2023-04-21T20:47:08.776Z,11.52
2023-04-21T20:49:36.319Z,10.82
2023-04-21T20:52:03.979Z,10.50
2023-04-21T20:54:31.221Z,7.70
2023-04-21T20:56:58.153Z,8.75
2023-04-21T20:59:25.086Z,9.93
2023-04-21T21:01:52.173Z,8.38
2023-04-21T21:04:19.255Z,9.13
2023-04-21T21:06:46.433Z,11.30
2023-04-21T21:09:13.524Z,12.68
2023-04-21T21:11:40.774Z,11.63
2023-04-21T21:14:07.818Z,14.18
2023-04-21T21:16:34.950Z,15.95
2023-04-21T21:19:02.078Z,18.65
2023-04-21T21:21:32.119Z,22.63
2023-04-21T21:23:59.099Z,23.13
2023-04-21T21:26:26.375Z,23.08
2023-04-21T21:28:53.486Z,23.20
2023-04-21T21:31:20.763Z,25.10
2023-04-21T21:33:47.967Z,26.02
2023-04-21T21:36:15.339Z,23.52
2023-04-21T21:38:42.313Z,24.23
2023-04-21T21:41:12.516Z,28.00
2023-04-21T21:43:39.491Z,26.67
2023-04-21T21:46:06.556Z,28.58
2023-04-21T21:48:33.745Z,29.52
2023-04-21T21:51:00.637Z,30.50
2023-04-21T21:53:27.637Z,30.60
2023-04-21T21:55:54.680Z,25.20
2023-04-21T21:58:21.622Z,23.17
2023-04-21T22:00:52.065Z,19.70
2023-04-21T22:03:20.150Z,20.05
2023-04-21T22:05:47.912Z,19.25
2023-04-21T22:08:15.951Z,18.10
2023-04-21T22:10:43.692Z,16.63
2023-04-21T22:13:11.504Z,14.77
2023-04-21T22:15:39.104Z,15.18
2023-04-21T22:18:07.463Z,15.63
2023-04-21T22:20:34.489Z,13.50
2023-04-21T22:23:01.564Z,12.40
2023-04-21T22:25:28.663Z,12.55
2023-04-21T22:27:57.188Z,12.07
2023-04-21T22:30:24.792Z,12.20
2023-04-21T22:32:51.929Z,11.73
2023-04-21T22:35:19.181Z,12.40
2023-04-21T22:37:46.171Z,12.00
2023-04-21T22:40:13.383Z,10.60
2023-04-21T22:42:40.525Z,9.60
2023-04-21T22:45:08.312Z,9.82
2023-04-21T22:47:35.452Z,9.77
2023-04-21T22:50:02.666Z,10.65
2023-04-21T22:52:29.820Z,9.88
2023-04-21T22:54:56.918Z,10.50
2023-04-21T22:57:24.074Z,9.73
2023-04-21T22:59:51.115Z,10.90
2023-04-21T23:02:18.170Z,8.52
2023-04-21T23:04:45.249Z,9.00
2023-04-21T23:07:12.258Z,9.48
2023-04-21T23:09:39.536Z,10.50
2023-04-21T23:12:06.819Z,10.00
2023-04-21T23:14:33.711Z,9.57
2023-04-21T23:17:01.001Z,10.23
2023-04-21T23:19:28.021Z,9.73
2023-04-21T23:21:55.118Z,8.82
2023-04-21T23:24:22.216Z,11.35
2023-04-21T23:26:49.275Z,11.73
2023-04-21T23:29:16.315Z,10.00
2023-04-21T23:31:43.496Z,10.88
2023-04-21T23:34:10.594Z,8.88
2023-04-21T23:36:37.709Z,9.15
2023-04-21T23:39:05.258Z,8.50
2023-04-21T23:41:32.451Z,9.02
2023-04-21T23:44:02.372Z,9.20
2023-04-21T23:46:29.510Z,9.93
2023-04-21T23:48:56.619Z,8.75
2023-04-21T23:51:23.713Z,8.70
2023-04-21T23:53:51.162Z,8.23
2023-04-21T23:56:18.035Z,8.07
2023-04-21T23:58:45.045Z,8.68
